Tokyo Heliport, Japan

8:31 AM JST on February 15, 2016 (GMT +0900)
Tokyo (Haneda) International | | Change Station
CLOSE
Current Station
Airport
Location: Tokyo,
Elevation: 26 ft
Nearby Weather Stations

Elev 26 ft 35.55 °N, 139.78 °E | Updated 31 minutes ago

Scattered Clouds
Scattered Clouds
54 °F
Feels Like 54 °F
N
12
Wind Variable Wind from ENE

Today
High -- | Low -- °F
--% Chance of Precip.
Yesterday
High -- | Low -- °F
Precip. -- in
Pressure 29.53 in
Visibility 6.2 miles
Clouds Few 2000 ft
Scattered Clouds 6000 ft
Dew Point 45 °F
Humidity 72%
Rainfall 0.00 in
Snow Depth Not available.
6:28 AM 5:21 PM
Waxing Crescent, 46% visible
METAR RJTT 142300Z 06010KT 9999 FEW020 SCT060 BKN/// 12/07 Q1000 BECMG 03010KT RMK 1CU020 4SC060 A2955
Pressure 29.53 in
Visibility 6.2 miles
Clouds Few 2000 ft
Scattered Clouds 6000 ft
Dew Point 45 °F
Humidity 72%
Rainfall 0.00 in
Snow Depth Not available.
6:28 AM 5:21 PM
Waxing Crescent, 46% visible
METAR RJTT 142300Z 06010KT 9999 FEW020 SCT060 BKN/// 12/07 Q1000 BECMG 03010KT RMK 1CU020 4SC060 A2955

10-Day Weather Forecast

No radar image for this location.
×

Almanac

Astronomy

Feb. 15, 2016 Rise Set
Actual Time
Civil Twilight
Nautical Twilight
Astronomical Twilight
Moon
Length of Visible Light
Length of Day
Tomorrow will be .
, % of the Moon is Illuminated

Today's Extremes

Country Highs Country Lows

Community

WunderPhotos

Upload Photos

1,892,925 photos uploaded!

WunderBlog® & News

Nearby

Air Quality

  Air Quality AQ Index Pollutant
Not available.

Snow Depth

Station Depth Elevation

Earthquake Activity

City Distance Mag. Time & Date
Minimum magnitude displayed is 2.5.

Coastal Water Temperatures

Place Temperature

Stations

Nearby Weather Stations

Station Location Temp. Windchill Dew Point Humidity Wind Precip. Elev Updated Type